Time;durP1;ratioP1;P1;durP2;ratioP2;P2;SDS_P1;SDS_P2;PMS_P1;PMS_P2;Temp;Humidity;BMP_temperature;BMP_pressure;BME280_temperature;BME280_humidity;BME280_pressure;Samples;Min_cycle;Max_cycle;Signal;HPM_P1;HPM_P2
2021/08/24 00:01:46;;;;;;;3.25;1.50;;;11.30;99.90;;;;;;4991276;28;20516;-68
2021/08/24 00:04:13;;;;;;;3.22;1.83;;;11.40;99.90;;;;;;4991092;28;20046;-67
2021/08/24 00:06:40;;;;;;;4.38;1.50;;;11.40;99.90;;;;;;4991111;28;20365;-70
2021/08/24 00:09:07;;;;;;;2.40;1.67;;;11.40;99.90;;;;;;4991171;28;20072;-66
2021/08/24 00:11:34;;;;;;;2.33;1.48;;;11.50;99.90;;;;;;4989928;28;20520;-65
2021/08/24 00:14:06;;;;;;;4.00;2.38;;;11.50;99.90;;;;;;4991014;28;20105;-68
2021/08/24 00:16:34;;;;;;;2.05;1.67;;;11.50;99.90;;;;;;4991075;28;20054;-68
2021/08/24 00:19:02;;;;;;;2.30;1.60;;;11.50;99.90;;;;;;4991343;28;20054;-68
2021/08/24 00:21:29;;;;;;;3.05;1.60;;;11.50;99.90;;;;;;4989353;28;20050;-67
2021/08/24 00:23:56;;;;;;;3.10;1.48;;;11.50;99.90;;;;;;4991138;28;20077;-71
2021/08/24 00:26:22;;;;;;;2.17;1.73;;;11.50;99.90;;;;;;4990721;28;20421;-69
2021/08/24 00:28:49;;;;;;;4.70;2.25;;;11.50;99.90;;;;;;4990901;28;20074;-65
2021/08/24 00:31:16;;;;;;;3.97;1.60;;;11.50;99.90;;;;;;4989576;28;20050;-63
2021/08/24 00:33:43;;;;;;;1.80;1.23;;;11.50;99.90;;;;;;4990766;28;20042;-64
2021/08/24 00:36:15;;;;;;;2.55;1.27;;;11.50;99.90;;;;;;4990770;28;20105;-66
2021/08/24 00:38:42;;;;;;;2.13;1.10;;;11.50;99.90;;;;;;4990831;28;20046;-66
2021/08/24 00:41:09;;;;;;;1.83;1.40;;;11.50;99.90;;;;;;4990801;28;20046;-64
2021/08/24 00:43:39;;;;;;;1.85;1.13;;;11.50;99.90;;;;;;4989605;28;20046;-67
2021/08/24 00:46:33;;;;;;;2.10;1.08;;;11.60;99.90;;;;;;4989290;28;20449;-70
2021/08/24 00:49:04;;;;;;;2.47;1.30;;;11.70;99.90;;;;;;4989928;28;20066;-65
2021/08/24 00:51:36;;;;;;;2.10;1.67;;;11.70;99.90;;;;;;4989468;28;20050;-70
2021/08/24 00:54:11;;;;;;;2.75;1.48;;;11.70;99.90;;;;;;4990543;28;20054;-68
2021/08/24 00:56:43;;;;;;;2.90;1.55;;;11.70;99.90;;;;;;4990739;28;20050;-69
2021/08/24 00:59:10;;;;;;;2.95;1.15;;;11.70;99.90;;;;;;4990693;28;20133;-66
2021/08/24 01:01:37;;;;;;;3.45;1.40;;;11.70;99.90;;;;;;4989032;28;20050;-70
2021/08/24 01:04:04;;;;;;;2.10;1.33;;;11.70;99.90;;;;;;4989460;28;20091;-65
2021/08/24 01:06:44;;;;;;;3.53;1.30;;;11.70;99.90;;;;;;4990284;28;20548;-67
2021/08/24 01:09:26;;;;;;;4.10;1.02;;;11.70;99.90;;;;;;4990247;28;20382;-70
2021/08/24 01:12:09;;;;;;;1.52;0.93;;;11.60;99.90;;;;;;4989066;28;20046;-67
2021/08/24 01:14:57;;;;;;;3.38;1.30;;;11.60;99.90;;;;;;4990536;28;20046;-66
2021/08/24 01:17:44;;;;;;;4.53;1.30;;;11.60;99.90;;;;;;4988774;28;20050;-65
2021/08/24 01:20:29;;;;;;;3.58;2.05;;;11.50;99.90;;;;;;4989603;28;20400;-66
2021/08/24 01:23:17;;;;;;;2.08;1.55;;;11.50;99.90;;;;;;4990083;28;20046;-67
2021/08/24 01:25:54;;;;;;;2.72;1.95;;;11.60;99.90;;;;;;4988766;28;20074;-63
2021/08/24 01:28:53;;;;;;;1.63;1.25;;;11.50;99.90;;;;;;4989812;28;20074;-66
2021/08/24 01:31:55;;;;;;;2.63;1.40;;;11.50;99.90;;;;;;4980654;28;20046;-66
2021/08/24 01:34:40;;;;;;;2.38;1.52;;;11.50;99.90;;;;;;4991652;28;20085;-65
2021/08/24 01:37:46;;;;;;;2.55;1.67;;;11.50;99.90;;;;;;4993294;28;20050;-64
2021/08/24 01:40:21;;;;;;;3.08;1.65;;;11.50;99.90;;;;;;4969616;28;20082;-65
2021/08/24 01:42:48;;;;;;;3.65;1.85;;;11.50;99.90;;;;;;4993734;28;20465;-71
2021/08/24 01:45:32;;;;;;;1.88;1.25;;;11.50;99.90;;;;;;4991786;28;20065;-64
2021/08/24 01:48:28;;;;;;;2.83;1.67;;;11.50;99.90;;;;;;4993321;28;20532;-70
2021/08/24 01:51:01;;;;;;;2.35;1.48;;;11.50;99.90;;;;;;4993245;28;20129;-66
2021/08/24 01:53:35;;;;;;;2.80;1.17;;;11.50;99.90;;;;;;4991475;28;20062;-68
2021/08/24 01:56:11;;;;;;;2.38;1.10;;;11.60;99.90;;;;;;4993280;28;20039;-68
2021/08/24 01:58:48;;;;;;;1.85;1.58;;;11.60;99.90;;;;;;4993144;28;20042;-66
2021/08/24 02:01:21;;;;;;;1.88;1.58;;;11.50;99.90;;;;;;4991487;28;20094;-68
2021/08/24 02:03:53;;;;;;;1.40;1.02;;;11.60;99.90;;;;;;4993032;28;20323;-68
2021/08/24 02:06:22;;;;;;;1.67;1.02;;;11.50;99.90;;;;;;4993094;28;20046;-68
2021/08/24 02:08:53;;;;;;;2.55;1.30;;;11.50;99.90;;;;;;4993192;28;20116;-66
2021/08/24 02:11:22;;;;;;;2.70;1.05;;;11.50;99.90;;;;;;4991619;28;20130;-64
2021/08/24 02:13:51;;;;;;;2.00;1.17;;;11.50;99.90;;;;;;4992099;28;20474;-66
2021/08/24 02:16:23;;;;;;;2.33;1.17;;;11.40;99.90;;;;;;4992814;28;20100;-63
2021/08/24 02:19:14;;;;;;;2.90;1.75;;;11.40;99.90;;;;;;4993221;28;20512;-64
2021/08/24 02:22:12;;;;;;;2.53;1.05;;;11.40;99.90;;;;;;5011381;28;20074;-69
2021/08/24 02:24:45;;;;;;;2.03;1.58;;;11.40;99.90;;;;;;5010467;28;20071;-64
2021/08/24 02:27:18;;;;;;;2.58;1.38;;;11.30;99.90;;;;;;5011593;28;20050;-64
2021/08/24 02:29:45;;;;;;;4.43;1.60;;;11.30;99.90;;;;;;5012796;28;20046;-66
2021/08/24 02:32:22;;;;;;;2.03;1.10;;;11.30;99.90;;;;;;5012193;28;20455;-69
2021/08/24 02:34:53;;;;;;;2.83;1.13;;;11.30;99.90;;;;;;5012199;28;20045;-67
2021/08/24 02:37:31;;;;;;;3.13;1.90;;;11.30;99.90;;;;;;5010039;28;20069;-63
2021/08/24 02:40:17;;;;;;;2.92;1.27;;;11.30;99.90;;;;;;5011710;28;20042;-65
2021/08/24 02:43:17;;;;;;;1.35;1.02;;;11.30;99.90;;;;;;5011936;28;20512;-68
2021/08/24 02:46:04;;;;;;;5.07;1.30;;;11.20;99.90;;;;;;5010096;28;20404;-71
2021/08/24 02:48:33;;;;;;;2.80;1.48;;;11.20;99.90;;;;;;5011746;28;20050;-63
2021/08/24 02:51:01;;;;;;;3.78;1.77;;;11.20;99.90;;;;;;5011590;28;20112;-68
2021/08/24 02:53:29;;;;;;;3.72;1.38;;;11.20;99.90;;;;;;5010250;28;20137;-67
2021/08/24 02:55:56;;;;;;;3.92;1.52;;;11.20;99.90;;;;;;5011089;28;20053;-68
2021/08/24 02:58:22;;;;;;;1.92;1.20;;;11.20;99.90;;;;;;5011477;28;20049;-66
2021/08/24 03:00:49;;;;;;;1.55;1.23;;;11.20;99.90;;;;;;5011589;28;20092;-68
2021/08/24 03:03:17;;;;;;;3.20;1.88;;;11.20;99.90;;;;;;5009648;28;20122;-65
2021/08/24 03:05:45;;;;;;;2.33;1.13;;;11.20;99.90;;;;;;5011420;28;20048;-67
2021/08/24 03:08:13;;;;;;;2.03;1.08;;;11.10;99.90;;;;;;5011036;28;20129;-66
2021/08/24 03:10:43;;;;;;;2.25;1.73;;;11.10;99.90;;;;;;5011831;28;20095;-66
2021/08/24 03:13:22;;;;;;;1.77;1.50;;;11.20;99.90;;;;;;5011609;28;20054;-67
2021/08/24 03:15:52;;;;;;;2.58;1.30;;;11.10;99.90;;;;;;4990941;28;20046;-66
2021/08/24 03:18:26;;;;;;;2.00;1.20;;;11.10;99.90;;;;;;4991311;28;20572;-70
2021/08/24 03:20:57;;;;;;;5.40;2.33;;;11.10;99.90;;;;;;4991417;28;20485;-66
2021/08/24 03:23:27;;;;;;;4.78;3.42;;;11.10;99.90;;;;;;4990209;28;20471;-63
2021/08/24 03:25:55;;;;;;;3.72;2.00;;;11.10;99.90;;;;;;4991119;28;20077;-65
2021/08/24 03:28:23;;;;;;;2.15;1.45;;;11.10;99.90;;;;;;4991255;28;20074;-68
2021/08/24 03:30:51;;;;;;;2.88;1.88;;;11.10;99.90;;;;;;4991548;28;20055;-66
2021/08/24 03:33:20;;;;;;;3.70;1.50;;;11.10;99.90;;;;;;4990150;28;20046;-63
2021/08/24 03:35:47;;;;;;;2.97;1.52;;;11.10;99.90;;;;;;4991157;28;20097;-68
2021/08/24 03:38:14;;;;;;;2.08;1.00;;;11.00;99.90;;;;;;4990925;28;20077;-66
2021/08/24 03:40:41;;;;;;;2.63;1.20;;;11.00;99.90;;;;;;4991110;28;20452;-64
2021/08/24 03:43:08;;;;;;;3.55;1.15;;;11.10;99.90;;;;;;4991193;28;20114;-67
2021/08/24 03:45:35;;;;;;;4.20;2.00;;;11.00;99.90;;;;;;4989652;28;20042;-67
2021/08/24 03:48:03;;;;;;;5.60;1.65;;;11.00;99.90;;;;;;4990904;28;20058;-69
2021/08/24 03:50:30;;;;;;;4.47;2.08;;;11.00;99.90;;;;;;4991146;28;20440;-64
2021/08/24 03:52:57;;;;;;;1.73;1.30;;;11.10;99.90;;;;;;4990939;28;20081;-67
2021/08/24 03:55:24;;;;;;;3.05;1.65;;;11.10;99.90;;;;;;4989526;28;20085;-65
2021/08/24 03:57:52;;;;;;;4.47;1.70;;;11.10;99.90;;;;;;4990407;28;20046;-67
2021/08/24 04:00:19;;;;;;;3.65;2.28;;;11.10;99.90;;;;;;4990588;28;20465;-64
2021/08/24 04:02:47;;;;;;;2.05;1.27;;;11.10;99.90;;;;;;4990723;28;20054;-67
2021/08/24 04:05:14;;;;;;;3.47;1.75;;;11.10;99.90;;;;;;4989456;28;20137;-64
2021/08/24 04:07:42;;;;;;;2.83;1.88;;;11.10;99.90;;;;;;4990646;28;20158;-66
2021/08/24 04:10:09;;;;;;;3.42;1.77;;;11.10;99.90;;;;;;4990483;28;20472;-69
2021/08/24 04:12:37;;;;;;;4.05;1.58;;;11.10;99.90;;;;;;4990847;28;20596;-64
2021/08/24 04:15:06;;;;;;;5.72;1.33;;;11.10;99.90;;;;;;4990809;28;20412;-65
2021/08/24 04:17:34;;;;;;;2.87;1.77;;;11.20;99.90;;;;;;4989624;28;20053;-69
2021/08/24 04:20:02;;;;;;;3.17;1.77;;;11.20;99.90;;;;;;4990067;28;20637;-72
2021/08/24 04:22:30;;;;;;;3.58;1.55;;;11.20;99.90;;;;;;4990486;28;20039;-63
2021/08/24 04:24:56;;;;;;;2.30;2.03;;;11.20;99.90;;;;;;4990581;28;20125;-66
2021/08/24 04:27:23;;;;;;;1.98;1.20;;;11.20;99.90;;;;;;4989115;28;20130;-66
2021/08/24 04:29:51;;;;;;;13.82;2.70;;;11.30;99.90;;;;;;4990408;28;20038;-64
2021/08/24 04:32:24;;;;;;;1.92;1.17;;;11.30;99.90;;;;;;4990268;28;20116;-66
2021/08/24 04:34:51;;;;;;;3.63;2.05;;;11.30;99.90;;;;;;4990266;28;20085;-66
2021/08/24 04:37:18;;;;;;;4.45;1.65;;;11.30;99.90;;;;;;4988812;28;20138;-64
2021/08/24 04:39:45;;;;;;;2.90;1.23;;;11.30;99.90;;;;;;4990213;28;20042;-64
2021/08/24 04:42:12;;;;;;;3.20;2.08;;;11.30;99.90;;;;;;4990287;28;20043;-67
2021/08/24 04:44:39;;;;;;;6.45;2.40;;;11.40;99.90;;;;;;4990559;28;20050;-66
2021/08/24 04:47:07;;;;;;;3.40;1.63;;;11.40;99.90;;;;;;4991003;28;20456;-66
2021/08/24 04:49:34;;;;;;;5.53;2.05;;;11.40;99.90;;;;;;4988956;28;20104;-66
2021/08/24 04:52:01;;;;;;;2.20;1.33;;;11.40;99.90;;;;;;4990110;28;20070;-71
2021/08/24 04:54:33;;;;;;;2.53;1.05;;;11.40;99.90;;;;;;4990341;28;20038;-69
2021/08/24 04:57:05;;;;;;;4.47;1.33;;;11.50;99.90;;;;;;4990354;28;20485;-63
2021/08/24 04:59:33;;;;;;;6.22;2.10;;;11.60;99.90;;;;;;4988687;28;20143;-64
2021/08/24 05:02:00;;;;;;;2.28;1.77;;;11.70;99.90;;;;;;4989636;28;20129;-69
2021/08/24 05:04:27;;;;;;;3.17;1.50;;;11.90;99.90;;;;;;4990260;28;20061;-66
2021/08/24 05:06:54;;;;;;;6.82;1.88;;;12.00;99.90;;;;;;4990174;28;20109;-66
2021/08/24 05:09:21;;;;;;;6.20;1.13;;;12.10;99.90;;;;;;4992251;28;20048;-64
2021/08/24 05:11:48;;;;;;;2.25;1.50;;;12.30;99.90;;;;;;4993925;28;20046;-69
2021/08/24 05:14:15;;;;;;;2.78;0.98;;;12.40;99.90;;;;;;4992664;28;20053;-63
2021/08/24 05:16:42;;;;;;;3.15;1.05;;;12.50;99.90;;;;;;4994054;28;20428;-63
2021/08/24 05:19:09;;;;;;;7.50;1.52;;;12.70;99.90;;;;;;4993956;28;20113;-64
2021/08/24 05:21:37;;;;;;;2.92;1.67;;;12.80;99.90;;;;;;4992052;28;20465;-63
2021/08/24 05:24:04;;;;;;;1.98;1.13;;;12.90;99.90;;;;;;4993233;28;20054;-66
2021/08/24 05:26:31;;;;;;;3.53;1.50;;;13.00;99.90;;;;;;4994061;28;20097;-66
2021/08/24 05:28:58;;;;;;;6.70;2.63;;;13.10;99.90;;;;;;4993746;28;20116;-66
2021/08/24 05:31:25;;;;;;;3.95;1.40;;;13.20;99.90;;;;;;4992387;28;20070;-64
2021/08/24 05:33:52;;;;;;;2.42;1.73;;;13.30;99.90;;;;;;4993665;28;20038;-66
2021/08/24 05:36:19;;;;;;;6.47;1.85;;;13.40;99.90;;;;;;4993535;28;20126;-68
2021/08/24 05:38:46;;;;;;;3.30;1.15;;;13.50;99.90;;;;;;4993776;28;20079;-69
2021/08/24 05:41:13;;;;;;;1.83;1.10;;;13.50;99.90;;;;;;4991950;28;20434;-67
2021/08/24 05:43:40;;;;;;;4.22;1.75;;;13.60;99.90;;;;;;4993434;28;20104;-66
2021/08/24 05:46:13;;;;;;;1.77;1.13;;;13.70;99.90;;;;;;4993927;28;20074;-67
2021/08/24 05:48:41;;;;;;;1.25;1.13;;;13.80;99.90;;;;;;4993763;28;20087;-66
2021/08/24 05:51:14;;;;;;;3.88;1.48;;;13.90;99.90;;;;;;4993251;28;20500;-66
2021/08/24 05:53:41;;;;;;;2.67;1.20;;;13.90;99.90;;;;;;5011753;28;20050;-64
2021/08/24 05:56:15;;;;;;;1.60;1.23;;;14.00;99.90;;;;;;5013449;28;20120;-66
2021/08/24 05:58:42;;;;;;;6.75;1.25;;;14.00;99.90;;;;;;5013250;28;20089;-67
2021/08/24 06:01:16;;;;;;;3.70;1.38;;;14.10;99.90;;;;;;5013075;28;20517;-66
2021/08/24 06:03:43;;;;;;;2.92;1.50;;;14.10;99.90;;;;;;5011210;28;20065;-66
2021/08/24 06:06:22;;;;;;;2.50;1.23;;;14.10;99.90;;;;;;5012690;28;20443;-65
2021/08/24 06:08:49;;;;;;;2.10;1.33;;;14.10;99.90;;;;;;5012865;28;20077;-63
2021/08/24 06:11:33;;;;;;;2.78;1.15;;;14.10;99.90;;;;;;5011020;28;20045;-68
2021/08/24 06:14:02;;;;;;;1.67;1.33;;;14.10;99.90;;;;;;5005237;28;20468;-64
2021/08/24 06:16:31;;;;;;;2.40;1.50;;;14.10;99.90;;;;;;5003939;28;20041;-66
2021/08/24 06:18:58;;;;;;;2.83;1.45;;;14.10;99.90;;;;;;5011898;28;20124;-71
2021/08/24 06:21:25;;;;;;;3.22;1.42;;;14.20;99.90;;;;;;5010493;28;20074;-64
2021/08/24 06:23:53;;;;;;;1.48;1.23;;;14.20;99.90;;;;;;5011953;28;20038;-69
2021/08/24 06:26:20;;;;;;;2.13;1.10;;;14.20;99.90;;;;;;5011980;28;20432;-67
2021/08/24 06:28:47;;;;;;;3.13;1.65;;;14.20;99.90;;;;;;5012227;28;20045;-70
2021/08/24 06:31:17;;;;;;;2.13;1.08;;;14.20;99.90;;;;;;5010654;28;20504;-64
2021/08/24 06:33:45;;;;;;;2.85;1.10;;;14.20;99.90;;;;;;5012055;28;20050;-63
2021/08/24 06:36:14;;;;;;;2.85;1.70;;;14.30;99.90;;;;;;5012330;28;20084;-65
2021/08/24 06:38:42;;;;;;;1.25;1.10;;;14.30;99.90;;;;;;5012240;28;20049;-65
2021/08/24 06:41:10;;;;;;;1.27;1.15;;;14.40;99.90;;;;;;5012258;28;20164;-66
2021/08/24 06:43:37;;;;;;;2.47;2.08;;;14.40;99.90;;;;;;5010825;28;20124;-67
2021/08/24 06:46:05;;;;;;;2.70;1.42;;;14.40;99.90;;;;;;5012054;28;20219;-66
2021/08/24 06:48:33;;;;;;;1.90;1.70;;;14.50;99.90;;;;;;5012148;28;20046;-68
2021/08/24 06:51:02;;;;;;;1.98;1.33;;;14.60;99.90;;;;;;5012126;28;20073;-67
2021/08/24 06:53:29;;;;;;;1.85;1.40;;;14.60;99.90;;;;;;5010669;28;20054;-67
2021/08/24 06:55:55;;;;;;;2.00;1.40;;;14.70;99.90;;;;;;5012345;28;20046;-66
2021/08/24 06:58:22;;;;;;;1.70;0.90;;;14.80;99.90;;;;;;5011765;28;20180;-65
2021/08/24 07:00:49;;;;;;;1.98;1.10;;;14.80;99.90;;;;;;5011925;28;20085;-68
2021/08/24 07:03:17;;;;;;;2.90;1.30;;;14.90;99.90;;;;;;5009947;28;20061;-63
2021/08/24 07:05:49;;;;;;;1.27;0.70;;;14.90;99.90;;;;;;5011955;28;20042;-66
2021/08/24 07:08:16;;;;;;;2.05;1.25;;;14.90;99.90;;;;;;5012184;28;20054;-69
2021/08/24 07:10:45;;;;;;;2.63;1.65;;;14.90;99.90;;;;;;5011350;28;20077;-70
2021/08/24 07:13:12;;;;;;;1.70;1.05;;;14.90;99.90;;;;;;5011888;28;20093;-66
2021/08/24 07:15:39;;;;;;;2.85;1.40;;;14.90;99.90;;;;;;4990509;28;20118;-63
2021/08/24 07:18:07;;;;;;;2.80;1.50;;;14.90;99.90;;;;;;4992004;28;20042;-70
2021/08/24 07:20:35;;;;;;;1.88;1.33;;;14.90;99.90;;;;;;4991788;28;20156;-65
2021/08/24 07:23:02;;;;;;;2.60;1.67;;;15.00;99.90;;;;;;4992068;28;20109;-64
2021/08/24 07:25:31;;;;;;;3.00;0.80;;;15.00;99.90;;;;;;4975864;28;20081;-71
2021/08/24 07:27:58;;;;;;;1.42;1.10;;;15.00;99.90;;;;;;5011029;28;20073;-67
2021/08/24 07:30:25;;;;;;;2.60;1.52;;;15.10;99.90;;;;;;5011118;28;20069;-62
2021/08/24 07:32:51;;;;;;;2.17;1.60;;;15.20;99.90;;;;;;5010674;28;20085;-69
2021/08/24 07:35:19;;;;;;;5.30;1.20;;;15.10;99.90;;;;;;5010005;28;20085;-63
2021/08/24 07:37:46;;;;;;;1.88;1.05;;;15.10;99.90;;;;;;5011900;28;20049;-64
2021/08/24 07:40:13;;;;;;;2.30;1.40;;;15.20;99.90;;;;;;5011651;28;20153;-66
2021/08/24 07:42:40;;;;;;;11.55;2.35;;;15.20;99.90;;;;;;5012012;28;20058;-63
2021/08/24 07:45:08;;;;;;;2.90;1.30;;;15.20;99.90;;;;;;5011394;28;20096;-68
2021/08/24 07:47:35;;;;;;;2.22;1.38;;;15.20;99.90;;;;;;5009899;28;20121;-65
2021/08/24 07:50:03;;;;;;;2.13;1.38;;;15.20;99.90;;;;;;5010915;28;20053;-65
2021/08/24 07:52:30;;;;;;;2.53;1.40;;;15.20;99.90;;;;;;5011162;28;20370;-66
2021/08/24 07:54:57;;;;;;;2.03;0.90;;;15.30;99.90;;;;;;5010761;28;20488;-67
2021/08/24 07:57:24;;;;;;;2.00;0.95;;;15.40;99.90;;;;;;5009842;28;20074;-63
2021/08/24 07:59:51;;;;;;;1.70;1.17;;;15.40;99.90;;;;;;5010705;28;20046;-66
2021/08/24 08:02:18;;;;;;;1.70;0.90;;;15.40;99.90;;;;;;5010653;28;20069;-68
2021/08/24 08:04:46;;;;;;;2.05;1.85;;;15.30;99.90;;;;;;5010819;28;20058;-66
2021/08/24 08:07:14;;;;;;;2.20;1.27;;;15.40;99.90;;;;;;5008969;28;20092;-64
2021/08/24 08:09:41;;;;;;;1.20;1.10;;;15.30;99.90;;;;;;5010464;28;20554;-65
2021/08/24 08:12:09;;;;;;;2.63;0.85;;;15.30;99.90;;;;;;5010733;28;20053;-63
2021/08/24 08:14:37;;;;;;;1.63;1.25;;;15.30;99.90;;;;;;5010804;28;20100;-63
2021/08/24 08:17:04;;;;;;;1.02;0.88;;;15.30;99.90;;;;;;5010627;28;20069;-64
2021/08/24 08:19:31;;;;;;;2.13;1.13;;;15.30;99.90;;;;;;5008931;28;20085;-64
2021/08/24 08:21:58;;;;;;;1.52;1.00;;;15.30;99.90;;;;;;5010652;28;20053;-67
2021/08/24 08:24:24;;;;;;;3.42;1.25;;;15.40;99.90;;;;;;5010191;28;20045;-69
2021/08/24 08:26:51;;;;;;;3.05;1.92;;;15.40;99.90;;;;;;5010494;28;20077;-69
2021/08/24 08:29:18;;;;;;;1.38;1.08;;;15.50;99.90;;;;;;5009161;28;20568;-66
2021/08/24 08:31:47;;;;;;;1.75;0.98;;;15.50;99.90;;;;;;5009918;28;20046;-65
2021/08/24 08:34:16;;;;;;;2.37;1.17;;;15.50;99.90;;;;;;5010287;28;20048;-67
2021/08/24 08:36:45;;;;;;;1.88;1.05;;;15.50;99.90;;;;;;5010301;28;20307;-65
2021/08/24 08:39:13;;;;;;;2.00;1.13;;;15.50;99.90;;;;;;5010049;28;20129;-63
2021/08/24 08:42:05;;;;;;;1.25;0.82;;;15.60;99.90;;;;;;5008848;28;20100;-66
2021/08/24 08:45:02;;;;;;;1.55;1.35;;;15.60;99.90;;;;;;5009837;28;20054;-65
2021/08/24 08:47:44;;;;;;;1.63;1.13;;;15.70;99.90;;;;;;5008869;28;20057;-65
2021/08/24 08:50:29;;;;;;;2.65;1.40;;;15.80;99.90;;;;;;5010091;28;20100;-65
2021/08/24 08:53:00;;;;;;;1.35;1.25;;;15.80;99.90;;;;;;5009668;28;20061;-68
2021/08/24 08:55:45;;;;;;;1.52;0.80;;;15.90;99.90;;;;;;5008421;28;20057;-66
2021/08/24 08:58:15;;;;;;;1.40;0.90;;;15.90;99.90;;;;;;5010018;28;20092;-65
2021/08/24 09:00:48;;;;;;;2.50;1.27;;;15.90;99.90;;;;;;5010201;28;20081;-66
2021/08/24 09:03:21;;;;;;;1.65;1.23;;;15.80;99.90;;;;;;5007967;28;20414;-69
2021/08/24 09:05:49;;;;;;;1.58;1.15;;;15.80;99.90;;;;;;5009969;28;20096;-68
2021/08/24 09:08:19;;;;;;;2.22;1.02;;;15.80;99.90;;;;;;5009529;28;20149;-63
2021/08/24 09:10:48;;;;;;;;;;;15.80;99.90;;;;;;5010432;28;20128;-65
2021/08/24 09:13:24;;;;;;;2.15;1.48;;;15.70;99.90;;;;;;5007958;28;19964;-66
2021/08/24 09:16:12;;;;;;;2.15;1.33;;;15.80;99.90;;;;;;5009962;28;20096;-66
2021/08/24 09:18:57;;;;;;;2.10;1.42;;;15.80;99.90;;;;;;5009428;28;20054;-66
2021/08/24 09:21:29;;;;;;;2.95;1.10;;;15.70;99.90;;;;;;5008116;28;20065;-63
2021/08/24 09:24:00;;;;;;;1.77;0.82;;;15.80;99.90;;;;;;5010027;28;20483;-66
2021/08/24 09:26:47;;;;;;;2.60;1.17;;;15.90;99.90;;;;;;5009414;28;20050;-65
2021/08/24 09:29:17;;;;;;;3.15;1.20;;;15.90;99.90;;;;;;5008431;28;20371;-68
2021/08/24 09:31:45;;;;;;;1.15;0.77;;;15.90;99.90;;;;;;5011183;28;20104;-64
2021/08/24 09:34:16;;;;;;;1.73;1.23;;;16.00;99.90;;;;;;5009491;28;20132;-62
2021/08/24 09:36:44;;;;;;;1.65;1.25;;;16.10;99.90;;;;;;5009609;28;20078;-64
2021/08/24 09:39:11;;;;;;;1.48;1.20;;;16.10;99.90;;;;;;5009547;28;20065;-66
2021/08/24 09:41:40;;;;;;;2.72;1.00;;;16.10;99.90;;;;;;5008265;28;20096;-63
2021/08/24 09:44:20;;;;;;;1.50;0.98;;;16.10;99.90;;;;;;5009223;28;20104;-67
2021/08/24 09:46:49;;;;;;;1.00;0.82;;;16.10;99.90;;;;;;5009331;28;20531;-63
2021/08/24 09:49:22;;;;;;;1.60;0.73;;;16.20;99.90;;;;;;5007889;28;20125;-65
2021/08/24 09:52:03;;;;;;;1.65;1.30;;;16.10;99.90;;;;;;5009070;28;20065;-63
2021/08/24 09:54:36;;;;;;;1.48;1.13;;;16.10;99.90;;;;;;5010077;28;20100;-64
2021/08/24 09:57:28;;;;;;;4.53;1.20;;;16.20;99.90;;;;;;5013270;28;20465;-63
2021/08/24 10:00:18;;;;;;;0.88;0.68;;;16.20;99.90;;;;;;5012012;28;20072;-65
2021/08/24 10:02:47;;;;;;;2.63;1.23;;;16.20;99.90;;;;;;5012096;28;20049;-63
2021/08/24 10:05:20;;;;;;;3.28;1.23;;;16.20;99.90;;;;;;5011292;28;20075;-67
2021/08/24 10:07:50;;;;;;;0.90;0.65;;;16.20;99.90;;;;;;5013056;28;20096;-65
2021/08/24 10:10:34;;;;;;;1.58;0.98;;;16.10;99.90;;;;;;5012503;28;20046;-63
2021/08/24 10:13:22;;;;;;;2.22;1.27;;;16.20;99.90;;;;;;5012725;28;20046;-63
2021/08/24 10:15:49;;;;;;;1.98;1.20;;;16.40;99.90;;;;;;5011253;28;20050;-65
2021/08/24 10:18:27;;;;;;;1.65;1.02;;;16.30;99.90;;;;;;5012167;28;20045;-64
2021/08/24 10:20:59;;;;;;;1.60;0.90;;;16.30;99.90;;;;;;5012367;28;20108;-67
2021/08/24 10:23:28;;;;;;;1.80;1.33;;;16.40;99.90;;;;;;5010862;28;20439;-63
2021/08/24 10:26:08;;;;;;;2.58;1.45;;;16.40;99.90;;;;;;5011941;28;20180;-64
2021/08/24 10:28:53;;;;;;;1.42;0.90;;;16.40;99.90;;;;;;5012045;28;20057;-63
2021/08/24 10:31:29;;;;;;;1.15;1.00;;;16.30;99.90;;;;;;5010957;28;20069;-69
2021/08/24 10:34:00;;;;;;;2.75;1.13;;;16.30;99.90;;;;;;5012025;28;20058;-66
2021/08/24 10:36:36;;;;;;;2.17;1.67;;;16.40;99.90;;;;;;5012215;28;20041;-68
2021/08/24 10:39:25;;;;;;;2.20;1.38;;;16.50;99.90;;;;;;5012146;28;20177;-69
2021/08/24 10:42:09;;;;;;;2.15;1.27;;;16.50;99.90;;;;;;5011104;28;20045;-67
2021/08/24 10:44:49;;;;;;;1.92;1.10;;;16.70;99.90;;;;;;5011956;28;20057;-63
2021/08/24 10:47:25;;;;;;;1.42;1.10;;;16.70;99.90;;;;;;5010685;28;20054;-66
2021/08/24 10:49:54;;;;;;;2.25;1.83;;;16.70;99.90;;;;;;5012016;28;20543;-68
2021/08/24 10:52:53;;;;;;;3.37;1.50;;;16.70;99.90;;;;;;5011480;28;20133;-63
2021/08/24 10:55:27;;;;;;;1.20;0.93;;;16.90;99.90;;;;;;5010736;28;20133;-62
2021/08/24 10:58:13;;;;;;;2.10;0.98;;;16.80;99.90;;;;;;5012042;28;20373;-65
2021/08/24 11:01:17;;;;;;;3.85;1.33;;;17.00;99.90;;;;;;5012145;28;20116;-64
2021/08/24 11:04:12;;;;;;;1.35;0.85;;;16.70;99.90;;;;;;4990605;28;20049;-63
2021/08/24 11:07:13;;;;;;;2.70;1.50;;;16.80;99.90;;;;;;4991679;28;20069;-66
2021/08/24 11:09:58;;;;;;;1.38;0.70;;;16.90;99.90;;;;;;4989422;28;20481;-63
2021/08/24 11:12:58;;;;;;;1.15;0.80;;;17.00;99.90;;;;;;4991937;28;20101;-67
2021/08/24 11:15:56;;;;;;;1.33;1.23;;;17.00;99.90;;;;;;4990278;28;20437;-70
2021/08/24 11:18:26;;;;;;;2.40;1.10;;;17.10;99.90;;;;;;4991801;28;20275;-66
2021/08/24 11:21:16;;;;;;;2.10;1.20;;;17.00;99.90;;;;;;4991690;28;20077;-70
2021/08/24 11:24:07;;;;;;;1.47;1.00;;;17.10;99.90;;;;;;4990347;28;20066;-65
2021/08/24 11:26:54;;;;;;;1.58;1.13;;;17.10;99.90;;;;;;4991630;28;20435;-66
2021/08/24 11:29:26;;;;;;;2.17;0.80;;;16.90;99.90;;;;;;4990688;28;20459;-65
2021/08/24 11:32:16;;;;;;;2.25;1.45;;;16.80;99.90;;;;;;4992143;28;20046;-67
2021/08/24 11:34:48;;;;;;;1.25;1.15;;;17.00;99.90;;;;;;4992056;28;20046;-66
2021/08/24 11:37:20;;;;;;;1.55;1.08;;;16.90;99.90;;;;;;4989988;28;20042;-66
2021/08/24 11:39:57;;;;;;;1.50;1.20;;;16.90;99.90;;;;;;4991689;28;20496;-69
2021/08/24 11:42:38;;;;;;;2.55;1.13;;;16.90;99.90;;;;;;4991385;28;20113;-65
2021/08/24 11:45:11;;;;;;;1.58;1.48;;;17.00;99.90;;;;;;4991454;28;20070;-66
2021/08/24 11:47:48;;;;;;;1.42;0.90;;;17.00;99.90;;;;;;4989984;28;20045;-65
2021/08/24 11:50:19;;;;;;;1.23;0.85;;;16.80;99.90;;;;;;4991252;28;20047;-64
2021/08/24 11:53:12;;;;;;;1.55;1.17;;;16.90;99.90;;;;;;4991096;28;20053;-69
2021/08/24 11:55:42;;;;;;;1.42;0.90;;;17.10;99.90;;;;;;4990085;28;20069;-67
2021/08/24 11:58:19;;;;;;;2.08;0.80;;;17.30;99.90;;;;;;4991097;28;20473;-66
2021/08/24 12:00:52;;;;;;;2.70;1.25;;;17.30;99.90;;;;;;4990968;28;20054;-69
2021/08/24 12:03:21;;;;;;;2.10;1.38;;;17.30;99.90;;;;;;4989484;28;20082;-66
2021/08/24 12:05:56;;;;;;;0.43;0.38;;;17.40;99.90;;;;;;4991244;28;20073;-66
2021/08/24 12:08:26;;;;;;;2.20;0.73;;;17.20;99.90;;;;;;4990487;28;20042;-66
2021/08/24 12:11:05;;;;;;;0.80;0.70;;;17.00;99.90;;;;;;4989189;28;20050;-67
2021/08/24 12:13:42;;;;;;;1.88;1.00;;;16.90;99.90;;;;;;4988986;28;21572;-64
2021/08/24 12:16:29;;;;;;;1.73;1.05;;;16.90;99.90;;;;;;4990156;28;20397;-70
2021/08/24 12:18:59;;;;;;;2.35;1.00;;;16.70;99.90;;;;;;4989597;28;20057;-67
2021/08/24 12:21:47;;;;;;;2.60;1.10;;;16.70;99.90;;;;;;4989026;28;20214;-68
2021/08/24 12:24:34;;;;;;;1.70;1.00;;;17.00;99.90;;;;;;4989346;28;20578;-67
2021/08/24 12:27:04;;;;;;;1.92;1.48;;;17.20;99.90;;;;;;4990168;28;20074;-67
2021/08/24 12:29:36;;;;;;;2.42;1.30;;;17.40;99.90;;;;;;4988302;28;20074;-65
2021/08/24 12:32:30;;;;;;;2.58;1.25;;;17.40;99.90;;;;;;4990193;28;20050;-67
2021/08/24 12:35:28;;;;;;;1.15;0.82;;;17.40;99.90;;;;;;4989985;28;20057;-70
2021/08/24 12:37:56;;;;;;;1.80;1.02;;;17.30;99.90;;;;;;4989173;28;20070;-67
2021/08/24 12:40:51;;;;;;;1.60;1.00;;;17.50;99.90;;;;;;4989914;28;20138;-68
2021/08/24 12:43:48;;;;;;;2.85;0.95;;;17.60;99.90;;;;;;4988625;28;20134;-69
2021/08/24 12:46:18;;;;;;;1.58;1.05;;;17.50;99.90;;;;;;4986326;28;20089;-66
2021/08/24 12:49:24;;;;;;;1.48;0.55;;;17.20;99.90;;;;;;4989632;28;20038;-69
2021/08/24 12:52:12;;;;;;;2.38;1.10;;;17.30;99.90;;;;;;4988404;28;20081;-63
2021/08/24 12:54:49;;;;;;;1.67;1.17;;;17.20;99.90;;;;;;4986278;28;20077;-66
2021/08/24 12:57:31;;;;;;;1.80;0.90;;;17.20;99.90;;;;;;4988328;28;20057;-66
2021/08/24 13:00:16;;;;;;;1.02;0.77;;;16.90;99.90;;;;;;4989739;28;20404;-70
2021/08/24 13:03:04;;;;;;;1.05;0.68;;;16.80;99.90;;;;;;4989710;28;20481;-66
2021/08/24 13:05:35;;;;;;;1.58;0.95;;;17.00;99.90;;;;;;4988445;28;20061;-63
2021/08/24 13:08:06;;;;;;;2.58;1.15;;;17.30;99.90;;;;;;4990039;28;20105;-66
2021/08/24 13:10:37;;;;;;;1.25;0.77;;;17.40;99.90;;;;;;4990202;28;20393;-68
2021/08/24 13:13:27;;;;;;;2.83;1.00;;;17.60;99.90;;;;;;4989933;28;20517;-66
2021/08/24 13:16:00;;;;;;;1.42;1.10;;;17.70;99.90;;;;;;4988854;28;20074;-66
2021/08/24 13:18:31;;;;;;;2.95;1.60;;;17.40;99.90;;;;;;4989876;28;20104;-68
2021/08/24 13:21:26;;;;;;;1.40;1.02;;;17.30;99.90;;;;;;4989777;28;20465;-69